Time;durP1;ratioP1;P1;durP2;ratioP2;P2;SDS_P1;SDS_P2;PMS_P1;PMS_P2;Temp;Humidity;BMP_temperature;BMP_pressure;BME280_temperature;BME280_humidity;BME280_pressure;Samples;Min_cycle;Max_cycle;Signal;HPM_P1;HPM_P2
2023/06/17 00:00:41;;;;;;;14.70;9.67;;;13.90;1.00;;;;;;5032733;28;20425;-81
2023/06/17 00:03:47;;;;;;;12.30;9.10;;;13.80;1.00;;;;;;5033862;28;20853;-81
2023/06/17 00:06:23;;;;;;;16.40;9.63;;;13.80;1.00;;;;;;5046023;28;20505;-81
2023/06/17 00:08:50;;;;;;;16.37;9.17;;;13.80;1.00;;;;;;5021401;28;20390;-75
2023/06/17 00:11:16;;;;;;;16.57;9.67;;;13.80;1.00;;;;;;5036392;28;20409;-75
2023/06/17 00:13:47;;;;;;;16.33;9.63;;;13.70;1.00;;;;;;5033485;28;20448;-74
2023/06/17 00:16:18;;;;;;;16.60;8.80;;;13.70;1.00;;;;;;5033038;28;20199;-75
2023/06/17 00:18:43;;;;;;;11.40;8.40;;;13.60;1.00;;;;;;5033047;28;20980;-75
2023/06/17 00:21:09;;;;;;;20.90;8.90;;;13.70;1.00;;;;;;5023989;28;20473;-75
2023/06/17 00:27:31;;;;;;;13.70;9.10;;;13.60;1.00;;;;;;5033114;28;20353;-81
2023/06/17 00:30:41;;;;;;;15.43;9.30;;;13.60;1.00;;;;;;5034498;28;20945;-81
2023/06/17 00:33:29;;;;;;;14.77;8.87;;;13.50;1.00;;;;;;5033126;28;20395;-81
2023/06/17 00:36:00;;;;;;;14.83;9.47;;;13.50;1.00;;;;;;5024028;28;20415;-82
2023/06/17 00:38:35;;;;;;;14.27;9.63;;;13.40;1.00;;;;;;5036502;28;20415;-81
2023/06/17 00:41:01;;;;;;;14.40;9.07;;;13.40;1.00;;;;;;5036476;28;20483;-74
2023/06/17 00:43:29;;;;;;;19.13;9.40;;;13.40;1.00;;;;;;5029118;28;20460;-75
2023/06/17 00:45:55;;;;;;;13.73;8.70;;;13.40;1.00;;;;;;5042569;28;20528;-75
2023/06/17 00:48:21;;;;;;;23.00;9.67;;;13.30;1.00;;;;;;5036086;28;20378;-75
2023/06/17 00:50:49;;;;;;;12.10;8.63;;;13.40;1.00;;;;;;5036244;28;20572;-75
2023/06/17 00:53:15;;;;;;;12.50;8.83;;;13.20;1.00;;;;;;5035604;28;20177;-75
2023/06/17 00:55:41;;;;;;;12.10;9.53;;;13.40;1.00;;;;;;5036580;28;20398;-75
2023/06/17 00:58:07;;;;;;;10.40;8.23;;;13.30;1.00;;;;;;5035663;28;20206;-75
2023/06/17 01:00:36;;;;;;;20.40;9.50;;;13.20;1.00;;;;;;5035770;28;20392;-75
2023/06/17 01:03:11;;;;;;;15.27;9.77;;;13.20;1.00;;;;;;5039333;28;20204;-75
2023/06/17 01:05:41;;;;;;;21.73;10.70;;;13.20;1.00;;;;;;5035997;28;20746;-75
2023/06/17 01:08:34;;;;;;;14.63;10.20;;;13.20;1.00;;;;;;5036159;28;20427;-74
2023/06/17 01:11:30;;;;;;;11.63;9.50;;;13.10;1.00;;;;;;5038682;28;21001;-82
2023/06/17 01:14:14;;;;;;;14.03;9.27;;;13.00;1.00;;;;;;5035953;28;20384;-81
2023/06/17 01:20:06;;;;;;;18.63;9.73;;;13.00;1.00;;;;;;5023360;28;20522;-81
2023/06/17 01:22:37;;;;;;;18.40;8.67;;;12.90;1.00;;;;;;5038623;28;20441;-81
2023/06/17 01:25:03;;;;;;;12.40;9.57;;;12.90;1.00;;;;;;5028525;28;20413;-74
2023/06/17 01:27:29;;;;;;;17.20;9.40;;;12.90;1.00;;;;;;5035378;28;20390;-75
2023/06/17 01:29:55;;;;;;;15.30;9.57;;;12.90;1.00;;;;;;5034595;28;20738;-75
2023/06/17 01:32:21;;;;;;;16.00;9.73;;;12.90;1.00;;;;;;5035506;28;20234;-74
2023/06/17 01:35:03;;;;;;;11.47;8.40;;;13.00;1.00;;;;;;5035212;28;20188;-75
2023/06/17 01:37:45;;;;;;;15.73;9.33;;;12.80;1.00;;;;;;5038491;28;20409;-75
2023/06/17 01:41:05;;;;;;;14.73;9.60;;;12.80;1.00;;;;;;5024248;28;20421;-81
2023/06/17 01:43:34;;;;;;;18.83;10.40;;;12.80;1.00;;;;;;5032414;28;20487;-81
2023/06/17 01:49:23;;;;;;;17.37;10.20;;;12.70;1.00;;;;;;5042697;28;20458;-81
2023/06/17 01:52:23;;;;;;;14.90;9.97;;;12.60;1.00;;;;;;5054165;28;20772;-81
2023/06/17 01:55:00;;;;;;;20.47;9.40;;;12.60;1.00;;;;;;5051692;28;20465;-75
2023/06/17 01:57:30;;;;;;;17.93;9.80;;;12.60;1.00;;;;;;5034391;28;20408;-75
2023/06/17 01:59:56;;;;;;;15.90;9.43;;;12.50;1.00;;;;;;5036911;28;20457;-75
2023/06/17 02:02:23;;;;;;;22.33;10.13;;;12.50;1.00;;;;;;5028858;28;20458;-75
2023/06/17 02:04:48;;;;;;;17.40;10.37;;;12.50;1.00;;;;;;5034565;28;20484;-75
2023/06/17 02:07:17;;;;;;;15.83;9.00;;;12.50;1.00;;;;;;5033820;28;20501;-75
2023/06/17 02:09:45;;;;;;;16.30;10.70;;;12.40;1.00;;;;;;5023398;28;20176;-76
2023/06/17 02:12:11;;;;;;;20.80;10.20;;;12.40;1.00;;;;;;5044478;28;21044;-75
2023/06/17 02:14:37;;;;;;;15.80;10.23;;;12.30;1.00;;;;;;5036692;28;20438;-75
2023/06/17 02:17:08;;;;;;;14.57;9.93;;;12.30;1.00;;;;;;5035365;28;20409;-74
2023/06/17 02:19:35;;;;;;;16.20;10.37;;;12.30;1.00;;;;;;5021442;28;20466;-75
2023/06/17 02:22:01;;;;;;;14.90;10.23;;;12.60;1.00;;;;;;5032593;28;20421;-75
2023/06/17 02:24:27;;;;;;;19.63;10.50;;;12.30;1.00;;;;;;5041656;28;20452;-75
2023/06/17 02:27:00;;;;;;;14.20;9.90;;;12.30;1.00;;;;;;5041997;28;20168;-75
2023/06/17 02:29:26;;;;;;;12.20;9.13;;;12.30;1.00;;;;;;5034348;28;20435;-75
2023/06/17 02:31:52;;;;;;;15.77;10.40;;;12.30;1.00;;;;;;5034314;28;20385;-75
2023/06/17 02:34:19;;;;;;;13.63;9.43;;;12.30;1.00;;;;;;5031003;28;20413;-75
2023/06/17 02:36:46;;;;;;;24.13;10.80;;;12.30;1.00;;;;;;5035029;28;20500;-75
2023/06/17 02:39:17;;;;;;;14.00;9.80;;;12.20;1.00;;;;;;5034392;28;20405;-89
2023/06/17 02:41:59;;;;;;;24.43;10.37;;;12.20;1.00;;;;;;5036155;28;20488;-82
2023/06/17 02:44:41;;;;;;;18.57;10.70;;;12.20;1.00;;;;;;5030290;28;20402;-80
2023/06/17 02:47:47;;;;;;;16.23;10.20;;;12.20;1.00;;;;;;5022816;28;20423;-81
2023/06/17 02:50:25;;;;;;;16.40;10.47;;;12.10;1.00;;;;;;5033684;28;20435;-81
2023/06/17 02:52:55;;;;;;;17.60;10.37;;;12.20;1.00;;;;;;5033263;28;20430;-81
2023/06/17 02:55:29;;;;;;;15.00;10.00;;;12.10;1.00;;;;;;5034010;28;20423;-81
2023/06/17 03:01:18;;;;;;;16.00;10.93;;;12.10;1.00;;;;;;5033687;28;20406;-81
2023/06/17 03:04:35;;;;;;;13.53;9.50;;;12.10;1.00;;;;;;5048672;28;20811;-81
2023/06/17 03:07:06;;;;;;;15.10;10.47;;;12.00;1.00;;;;;;5033542;28;20771;-81
2023/06/17 03:09:32;;;;;;;15.67;11.30;;;11.90;1.00;;;;;;5027862;28;20441;-81
2023/06/17 03:11:59;;;;;;;16.50;10.33;;;11.90;1.00;;;;;;5047929;28;20844;-82
2023/06/17 03:18:05;;;;;;;18.77;10.10;;;11.80;1.00;;;;;;5034941;28;20433;-82
2023/06/17 03:20:38;;;;;;;14.77;9.77;;;11.90;1.00;;;;;;5027859;28;20417;-82
2023/06/17 03:23:05;;;;;;;15.90;9.83;;;11.90;1.00;;;;;;5033297;28;20467;-81
2023/06/17 03:26:05;;;;;;;19.73;10.60;;;11.90;1.00;;;;;;5033677;28;20419;-83
2023/06/17 03:28:36;;;;;;;14.40;9.20;;;11.90;1.00;;;;;;5032005;28;20442;-82
2023/06/17 03:31:02;;;;;;;14.07;9.30;;;11.90;1.00;;;;;;5033832;28;20405;-82
2023/06/17 03:33:51;;;;;;;15.60;10.17;;;11.90;1.00;;;;;;5046102;28;20463;-82
2023/06/17 03:36:29;;;;;;;13.90;9.30;;;11.90;1.00;;;;;;5033425;28;20435;-82
2023/06/17 03:38:59;;;;;;;14.97;8.83;;;11.90;1.00;;;;;;5042805;28;20947;-82
2023/06/17 03:41:59;;;;;;;14.23;10.23;;;11.90;1.00;;;;;;5041988;28;20449;-84
2023/06/17 03:51:53;;;;;;;19.03;11.80;;;12.00;1.00;;;;;;5033598;28;20522;-84
2023/06/17 03:57:53;;;;;;;19.27;11.30;;;12.00;1.00;;;;;;5033319;28;20966;-84
2023/06/17 04:00:44;;;;;;;16.50;10.57;;;12.10;1.00;;;;;;5032627;28;20431;-84
2023/06/17 04:03:11;;;;;;;18.33;11.20;;;12.10;1.00;;;;;;5033359;28;20460;-84
2023/06/17 04:06:23;;;;;;;14.80;10.13;;;12.20;1.00;;;;;;5033416;28;20426;-84
2023/06/17 04:09:23;;;;;;;14.60;10.90;;;12.30;1.00;;;;;;5041717;28;20386;-85
2023/06/17 04:11:53;;;;;;;14.23;10.00;;;12.40;1.00;;;;;;5031023;28;20430;-83
2023/06/17 04:14:23;;;;;;;14.43;9.80;;;12.40;1.00;;;;;;5038888;28;20462;-82
2023/06/17 04:16:56;;;;;;;20.17;10.13;;;12.40;1.00;;;;;;5036826;28;20933;-82
2023/06/17 04:19:41;;;;;;;16.80;10.33;;;12.50;1.00;;;;;;5036730;28;20415;-83
2023/06/17 04:22:11;;;;;;;21.27;10.47;;;12.50;1.00;;;;;;5035938;28;20433;-82
2023/06/17 04:24:41;;;;;;;12.80;9.70;;;12.60;1.00;;;;;;5038479;28;21011;-82
2023/06/17 04:27:17;;;;;;;13.27;9.87;;;12.70;1.00;;;;;;5036658;28;20473;-84
2023/06/17 04:29:56;;;;;;;17.07;10.30;;;12.70;1.00;;;;;;5038163;28;20445;-84
2023/06/17 04:32:25;;;;;;;14.73;9.90;;;12.70;1.00;;;;;;5037476;28;20457;-84
2023/06/17 04:34:53;;;;;;;20.37;10.23;;;12.90;1.00;;;;;;5036504;28;20429;-84
2023/06/17 04:37:24;;;;;;;13.33;9.83;;;12.90;1.00;;;;;;5037473;28;20400;-84
2023/06/17 04:40:23;;;;;;;18.80;10.50;;;13.00;1.00;;;;;;5035475;28;20415;-84
2023/06/17 04:50:17;;;;;;;13.53;9.33;;;13.30;1.00;;;;;;5036084;28;20400;-84
2023/06/17 04:52:53;;;;;;;12.60;9.23;;;13.40;1.00;;;;;;5043521;28;20891;-84
2023/06/17 04:55:53;;;;;;;17.33;10.93;;;13.50;1.00;;;;;;5049050;28;20397;-84
2023/06/17 04:58:23;;;;;;;14.10;10.40;;;13.60;1.00;;;;;;5036589;28;20884;-84
2023/06/17 05:01:23;;;;;;;22.43;10.50;;;13.70;1.00;;;;;;5048356;28;20917;-84
2023/06/17 05:04:23;;;;;;;14.33;10.20;;;13.80;1.00;;;;;;5036537;28;20498;-84
2023/06/17 05:06:53;;;;;;;13.57;10.07;;;13.90;1.00;;;;;;5040916;28;20414;-84
2023/06/17 05:09:19;;;;;;;18.80;10.40;;;14.00;1.00;;;;;;5034754;28;20929;-84
2023/06/17 05:11:53;;;;;;;13.90;10.20;;;14.10;1.00;;;;;;5057805;28;20401;-83
2023/06/17 05:14:53;;;;;;;15.87;10.97;;;14.20;1.00;;;;;;5044518;28;20186;-82
2023/06/17 05:17:53;;;;;;;16.30;10.87;;;14.40;1.00;;;;;;5048032;28;20425;-82
2023/06/17 05:20:19;;;;;;;15.50;9.57;;;14.50;1.00;;;;;;5050447;28;20418;-82
2023/06/17 05:22:53;;;;;;;21.63;11.00;;;14.70;1.00;;;;;;5034656;28;21050;-83
2023/06/17 05:25:23;;;;;;;14.13;10.10;;;14.80;1.00;;;;;;5035496;28;20682;-82
2023/06/17 05:28:06;;;;;;;16.67;10.53;;;15.00;1.00;;;;;;5036160;28;20489;-83
2023/06/17 05:30:35;;;;;;;14.87;10.30;;;15.10;1.00;;;;;;5045223;28;20947;-83
2023/06/17 05:33:11;;;;;;;13.30;10.20;;;15.20;1.00;;;;;;5050441;28;20419;-82
2023/06/17 05:35:41;;;;;;;19.80;10.20;;;15.40;1.00;;;;;;5032893;28;20961;-81
2023/06/17 05:38:23;;;;;;;13.50;10.40;;;15.50;1.00;;;;;;5028570;28;20428;-82
2023/06/17 05:41:05;;;;;;;17.10;10.93;;;15.70;1.00;;;;;;5034797;28;20421;-82
2023/06/17 05:43:31;;;;;;;14.57;10.40;;;15.90;1.00;;;;;;5033953;28;20508;-83
2023/06/17 05:46:29;;;;;;;13.47;9.33;;;16.00;1.00;;;;;;5053901;28;20389;-83
2023/06/17 05:48:55;;;;;;;17.27;10.87;;;16.00;1.00;;;;;;5023800;28;20275;-83
2023/06/17 05:51:20;;;;;;;13.00;9.93;;;16.20;1.00;;;;;;5045312;28;20434;-83
2023/06/17 05:53:53;;;;;;;12.63;9.07;;;16.40;1.00;;;;;;5045436;28;20188;-83
2023/06/17 05:56:29;;;;;;;15.03;9.87;;;16.40;1.00;;;;;;5037861;28;20549;-82
2023/06/17 05:59:47;;;;;;;13.83;10.10;;;16.60;1.00;;;;;;5034048;28;20426;-83
2023/06/17 06:02:29;;;;;;;11.00;8.37;;;16.70;1.00;;;;;;5049135;28;20434;-83
2023/06/17 06:05:23;;;;;;;12.53;9.40;;;16.90;1.00;;;;;;5033102;28;20432;-83
2023/06/17 06:07:53;;;;;;;11.70;8.70;;;17.00;1.00;;;;;;5044645;28;20760;-83
2023/06/17 06:10:26;;;;;;;12.97;8.30;;;17.20;1.00;;;;;;5032796;28;20408;-84
2023/06/17 06:12:54;;;;;;;12.03;9.40;;;17.30;1.00;;;;;;5034952;28;20447;-84
2023/06/17 06:15:25;;;;;;;13.57;9.10;;;17.40;1.00;;;;;;5037464;28;20941;-83
2023/06/17 06:17:52;;;;;;;13.13;9.50;;;17.50;1.00;;;;;;5033454;28;20408;-84
2023/06/17 06:20:29;;;;;;;12.17;8.07;;;17.60;1.00;;;;;;5038899;28;20453;-83
2023/06/17 06:23:11;;;;;;;10.90;8.90;;;17.80;1.00;;;;;;5022915;28;20457;-84
2023/06/17 06:29:35;;;;;;;11.33;7.67;;;18.10;1.00;;;;;;5034726;28;20405;-84
2023/06/17 06:32:53;;;;;;;14.13;9.10;;;18.30;1.00;;;;;;5030955;28;20465;-83
2023/06/17 06:35:19;;;;;;;15.50;8.50;;;18.50;1.00;;;;;;5027447;28;20413;-83
2023/06/17 06:37:47;;;;;;;11.00;7.67;;;18.70;1.00;;;;;;5025079;28;20445;-83
2023/06/17 06:40:13;;;;;;;9.80;7.80;;;18.80;1.00;;;;;;5031621;28;20430;-84
2023/06/17 06:42:53;;;;;;;13.50;8.40;;;19.00;1.00;;;;;;5052630;28;20870;-84
2023/06/17 06:45:53;;;;;;;10.37;7.73;;;19.20;1.00;;;;;;5045704;28;20183;-82
2023/06/17 06:48:19;;;;;;;10.13;6.90;;;19.30;1.00;;;;;;5032536;28;20405;-82
2023/06/17 06:50:47;;;;;;;9.30;8.30;;;19.50;1.00;;;;;;5029621;28;20420;-82
2023/06/17 06:53:19;;;;;;;9.53;7.80;;;19.70;1.00;;;;;;5031038;28;20468;-82
2023/06/17 06:55:59;;;;;;;9.50;7.03;;;19.80;1.00;;;;;;5034245;28;20505;-82
2023/06/17 06:58:25;;;;;;;9.90;7.53;;;20.00;1.00;;;;;;5031896;28;20439;-87
2023/06/17 07:00:53;;;;;;;9.50;7.73;;;20.20;1.00;;;;;;5025885;28;20439;-78
2023/06/17 07:03:23;;;;;;;19.90;8.57;;;20.40;1.00;;;;;;5033387;28;20799;-78
2023/06/17 07:05:49;;;;;;;13.80;7.37;;;20.50;1.00;;;;;;5030203;28;20510;-78
2023/06/17 07:08:17;;;;;;;10.10;8.23;;;20.60;1.00;;;;;;5030204;28;20502;-77
2023/06/17 07:10:53;;;;;;;8.90;6.73;;;20.80;1.00;;;;;;5033153;28;20235;-77
2023/06/17 07:13:29;;;;;;;12.73;8.23;;;20.90;1.00;;;;;;5035605;28;20462;-79
2023/06/17 07:16:41;;;;;;;9.70;7.83;;;21.10;1.00;;;;;;5033446;28;20428;-77
2023/06/17 07:19:17;;;;;;;14.83;7.50;;;21.20;1.00;;;;;;5033978;28;20413;-77
2023/06/17 07:21:54;;;;;;;10.20;7.30;;;21.30;1.00;;;;;;5031965;28;20452;-77
2023/06/17 07:24:23;;;;;;;11.40;7.23;;;21.50;1.00;;;;;;5033012;28;20426;-78
2023/06/17 07:26:59;;;;;;;11.43;7.63;;;21.60;1.00;;;;;;5027169;28;20556;-78
2023/06/17 07:29:30;;;;;;;9.90;7.43;;;21.80;1.00;;;;;;5031584;28;20481;-77
2023/06/17 07:32:06;;;;;;;12.10;7.13;;;21.90;1.00;;;;;;5032561;28;20826;-77
2023/06/17 07:34:31;;;;;;;8.93;7.33;;;22.00;1.00;;;;;;5034956;28;20468;-77
2023/06/17 07:37:00;;;;;;;15.93;8.80;;;22.00;1.00;;;;;;5041909;28;20514;-77
2023/06/17 07:39:35;;;;;;;17.50;7.60;;;22.20;1.00;;;;;;5033444;28;20180;-77
2023/06/17 07:42:18;;;;;;;6.83;5.90;;;22.30;1.00;;;;;;5027264;28;20520;-78
2023/06/17 07:44:44;;;;;;;7.47;6.67;;;22.50;1.00;;;;;;5027018;28;20431;-78
2023/06/17 07:47:11;;;;;;;10.40;7.37;;;22.50;1.00;;;;;;5029318;28;20431;-78
2023/06/17 07:49:41;;;;;;;11.30;7.03;;;22.60;1.00;;;;;;5037282;28;20926;-77
2023/06/17 07:52:23;;;;;;;10.57;7.47;;;22.80;1.00;;;;;;5033073;28;20542;-78
2023/06/17 07:54:51;;;;;;;14.93;7.20;;;22.90;1.00;;;;;;5037479;28;20428;-78
2023/06/17 07:57:35;;;;;;;8.57;6.60;;;23.00;1.00;;;;;;5037007;28;20409;-78
2023/06/17 08:00:01;;;;;;;12.23;7.20;;;23.20;1.00;;;;;;5048432;28;20919;-77
2023/06/17 08:02:54;;;;;;;8.67;6.43;;;23.30;1.00;;;;;;5045311;28;20462;-92
2023/06/17 08:08:53;;;;;;;9.33;6.20;;;23.50;1.00;;;;;;5036557;28;20459;-92
2023/06/17 08:11:23;;;;;;;7.60;6.50;;;23.60;1.00;;;;;;5034888;28;20441;-91
2023/06/17 08:14:05;;;;;;;14.90;7.07;;;23.70;1.00;;;;;;5039822;28;20945;-89
2023/06/17 08:16:53;;;;;;;7.53;6.70;;;24.00;1.00;;;;;;5046810;28;20985;-85
2023/06/17 08:19:19;;;;;;;14.83;6.77;;;24.00;1.00;;;;;;5035731;28;20415;-83
2023/06/17 08:21:45;;;;;;;11.17;6.40;;;24.20;1.00;;;;;;5035264;28;20449;-82
2023/06/17 08:24:24;;;;;;;19.53;6.97;;;24.20;1.00;;;;;;5035953;28;20267;-81
2023/06/17 08:26:51;;;;;;;9.10;6.50;;;24.30;1.00;;;;;;5036654;28;20639;-83
2023/06/17 08:29:25;;;;;;;8.83;6.17;;;24.50;1.00;;;;;;5035726;28;20444;-92
2023/06/17 08:35:23;;;;;;;16.43;6.80;;;24.80;1.00;;;;;;5037370;28;20479;-92
2023/06/17 08:41:23;;;;;;;25.87;7.43;;;24.80;1.00;;;;;;5037051;28;20456;-93
2023/06/17 08:43:58;;;;;;;9.60;6.73;;;25.00;1.00;;;;;;5025066;28;20978;-93
2023/06/17 08:46:43;;;;;;;6.80;6.00;;;25.10;1.00;;;;;;5016457;28;20480;-93
2023/06/17 08:49:47;;;;;;;9.93;6.53;;;25.10;1.00;;;;;;5026595;28;20883;-92
2023/06/17 08:52:14;;;;;;;11.20;6.70;;;25.10;1.00;;;;;;5036050;28;20427;-92
2023/06/17 08:58:17;;;;;;;14.63;7.07;;;25.20;1.00;;;;;;5036239;28;20467;-92
2023/06/17 09:00:57;;;;;;;9.30;5.93;;;25.30;1.00;;;;;;5055508;28;20510;-92
2023/06/17 09:03:54;;;;;;;9.00;6.40;;;25.40;1.00;;;;;;5039604;28;20466;-90
2023/06/17 09:06:30;;;;;;;8.13;7.10;;;25.50;1.00;;;;;;5043583;28;21029;-84
2023/06/17 09:08:57;;;;;;;12.60;6.57;;;25.50;1.00;;;;;;5020512;28;20426;-89
2023/06/17 09:11:47;;;;;;;8.07;5.53;;;25.70;1.00;;;;;;5041362;28;20450;-90
2023/06/17 09:14:26;;;;;;;8.10;6.30;;;26.00;1.00;;;;;;5037768;28;20444;-89
2023/06/17 09:23:39;;;;;;;5.30;4.80;;;26.00;1.00;;;;;;5037446;28;20504;-91
2023/06/17 09:26:17;;;;;;;5.80;5.17;;;26.00;1.00;;;;;;5031570;28;20485;-89
2023/06/17 09:29:29;;;;;;;7.90;5.83;;;26.00;1.00;;;;;;5031690;28;20987;-90
2023/06/17 09:32:01;;;;;;;6.93;5.17;;;26.00;1.00;;;;;;5047185;28;20926;-82
2023/06/17 09:34:48;;;;;;;6.33;5.07;;;26.10;1.00;;;;;;5028469;28;20503;-82
2023/06/17 09:37:35;;;;;;;5.97;5.40;;;26.20;1.00;;;;;;5034576;28;20433;-82
2023/06/17 09:40:02;;;;;;;8.83;5.30;;;26.40;1.00;;;;;;5031859;28;20527;-82
2023/06/17 09:43:05;;;;;;;5.67;5.17;;;26.40;1.00;;;;;;5038708;28;20606;-84
2023/06/17 09:52:42;;;;;;;8.00;5.20;;;26.90;1.00;;;;;;5024385;28;20764;-91
2023/06/17 09:55:24;;;;;;;17.37;4.57;;;27.00;1.00;;;;;;5049476;28;20864;-90
2023/06/17 10:01:13;;;;;;;12.40;5.60;;;27.40;1.00;;;;;;5035770;28;20439;-91
2023/06/17 10:07:02;;;;;;;9.87;4.90;;;27.80;1.00;;;;;;5032359;28;20444;-90
2023/06/17 10:09:28;;;;;;;8.10;4.93;;;28.20;1.00;;;;;;5048525;28;20836;-90
2023/06/17 10:15:30;;;;;;;8.13;5.40;;;28.30;1.00;;;;;;5040723;28;20410;-83
2023/06/17 10:17:57;;;;;;;6.40;5.10;;;28.20;1.00;;;;;;5049807;28;20908;-82
2023/06/17 10:20:36;;;;;;;8.27;5.50;;;28.00;1.00;;;;;;5027081;28;20473;-82
2023/06/17 10:23:03;;;;;;;8.83;6.17;;;28.00;1.00;;;;;;5036715;28;20564;-82
2023/06/17 10:25:38;;;;;;;8.63;5.40;;;28.00;1.00;;;;;;5030097;28;20921;-84
2023/06/17 10:28:06;;;;;;;15.30;6.10;;;28.10;1.00;;;;;;5041656;28;20908;-84
2023/06/17 10:30:39;;;;;;;9.23;5.27;;;28.40;1.00;;;;;;5050464;28;20440;-84
2023/06/17 10:33:27;;;;;;;6.13;5.10;;;28.40;1.00;;;;;;5050401;28;20436;-83
2023/06/17 10:36:19;;;;;;;6.27;5.63;;;28.30;1.00;;;;;;5020367;28;20479;-83
2023/06/17 10:39:05;;;;;;;11.60;5.27;;;28.50;1.00;;;;;;5034109;28;20902;-83
2023/06/17 10:41:49;;;;;;;14.07;5.13;;;28.70;1.00;;;;;;5039331;28;20463;-83
2023/06/17 10:44:28;;;;;;;20.40;5.17;;;29.00;1.00;;;;;;5046671;28;20472;-82
2023/06/17 10:47:29;;;;;;;9.27;5.67;;;29.10;1.00;;;;;;5035197;28;20784;-83
2023/06/17 10:50:00;;;;;;;15.63;5.30;;;29.00;1.00;;;;;;4980664;28;20451;-83
2023/06/17 10:52:38;;;;;;;11.27;5.57;;;29.30;1.00;;;;;;4972373;28;20484;-82
2023/06/17 10:55:13;;;;;;;126.87;8.17;;;29.40;1.00;;;;;;4972294;28;20440;-82
2023/06/17 10:57:59;;;;;;;29.33;5.20;;;29.60;1.00;;;;;;4958440;28;20445;-83
2023/06/17 11:00:36;;;;;;;8.43;4.50;;;29.80;1.00;;;;;;4965106;28;20448;-84
2023/06/17 11:03:18;;;;;;;26.30;5.40;;;30.10;1.00;;;;;;4953839;28;21025;-83
2023/06/17 11:06:13;;;;;;;10.77;3.70;;;29.90;1.00;;;;;;4965407;28;20425;-83
2023/06/17 11:09:00;;;;;;;7.50;4.53;;;30.10;1.00;;;;;;4972376;28;20476;-83
2023/06/17 11:11:42;;;;;;;5.53;4.47;;;30.10;1.00;;;;;;4961724;28;20527;-82
2023/06/17 11:14:17;;;;;;;9.13;4.70;;;29.80;1.00;;;;;;4971928;28;20985;-82
2023/06/17 11:16:43;;;;;;;6.40;4.67;;;29.70;1.00;;;;;;4957118;28;20476;-91
2023/06/17 11:19:53;;;;;;;6.57;4.77;;;29.80;1.00;;;;;;4957370;28;20433;-91
2023/06/17 11:22:36;;;;;;;6.37;4.43;;;29.60;1.00;;;;;;4970225;28;20941;-91
2023/06/17 11:25:06;;;;;;;5.80;4.60;;;29.60;1.00;;;;;;4992038;28;20529;-91
2023/06/17 11:27:38;;;;;;;6.60;4.23;;;29.50;1.00;;;;;;5028874;28;20426;-91
2023/06/17 11:30:07;;;;;;;7.87;4.20;;;29.40;1.00;;;;;;5034793;28;20419;-91
2023/06/17 11:32:36;;;;;;;6.70;4.77;;;29.50;1.00;;;;;;5032773;28;20426;-81
2023/06/17 11:35:11;;;;;;;5.60;4.57;;;29.50;1.00;;;;;;5039930;28;20422;-81
2023/06/17 11:37:49;;;;;;;4.80;4.37;;;29.80;1.00;;;;;;5033334;28;20444;-82
2023/06/17 11:40:18;;;;;;;6.80;4.10;;;30.00;1.00;;;;;;5037128;28;20797;-82
2023/06/17 11:42:46;;;;;;;5.47;4.97;;;30.10;1.00;;;;;;5051803;28;20461;-82
2023/06/17 11:45:13;;;;;;;7.60;4.33;;;30.30;1.00;;;;;;5038466;28;20853;-82
2023/06/17 11:47:42;;;;;;;5.93;4.30;;;30.60;1.00;;;;;;5024300;28;20480;-83
2023/06/17 11:50:12;;;;;;;6.90;4.30;;;30.60;1.00;;;;;;5031518;28;20431;-82
2023/06/17 11:52:38;;;;;;;4.13;3.83;;;30.70;1.00;;;;;;5031828;28;20450;-82
2023/06/17 11:55:05;;;;;;;8.80;4.60;;;30.70;1.00;;;;;;5031770;28;20484;-82
2023/06/17 11:57:36;;;;;;;9.40;4.23;;;30.80;1.00;;;;;;5053111;28;20632;-82
2023/06/17 12:00:05;;;;;;;7.13;4.63;;;30.90;1.00;;;;;;5032235;28;20442;-82
2023/06/17 12:02:34;;;;;;;31.03;5.20;;;31.10;1.00;;;;;;5039227;28;20973;-83
2023/06/17 12:05:02;;;;;;;6.10;4.83;;;31.10;1.00;;;;;;5020162;28;20529;-82
2023/06/17 12:07:36;;;;;;;6.53;4.47;;;31.00;1.00;;;;;;5047431;28;20427;-82
2023/06/17 12:10:17;;;;;;;4.63;4.23;;;31.00;1.00;;;;;;5032501;28;21002;-82
2023/06/17 12:13:10;;;;;;;4.87;4.40;;;30.40;1.00;;;;;;5032812;28;20426;-82
2023/06/17 12:15:48;;;;;;;5.13;4.63;;;30.50;1.00;;;;;;5034891;28;20541;-82
2023/06/17 12:18:18;;;;;;;11.20;4.60;;;30.90;1.00;;;;;;5033329;28;20442;-83
2023/06/17 12:20:54;;;;;;;13.67;4.77;;;31.00;1.00;;;;;;5034589;28;20517;-83
2023/06/17 12:23:19;;;;;;;14.73;4.47;;;31.20;1.00;;;;;;5032354;28;21031;-83
2023/06/17 12:25:48;;;;;;;41.47;5.30;;;31.50;1.00;;;;;;5044490;28;20435;-82
2023/06/17 12:28:35;;;;;;;11.10;4.60;;;31.40;1.00;;;;;;5032971;28;20267;-83
2023/06/17 12:31:12;;;;;;;8.67;5.17;;;31.30;1.00;;;;;;5024915;28;20466;-83
2023/06/17 12:37:06;;;;;;;5.50;4.10;;;31.30;1.00;;;;;;5036825;28;20757;-90
2023/06/17 12:39:42;;;;;;;10.07;4.20;;;31.40;1.00;;;;;;5035927;28;20419;-91
2023/06/17 12:42:36;;;;;;;9.90;5.07;;;31.10;1.00;;;;;;5041519;28;20955;-91
2023/06/17 12:45:06;;;;;;;41.57;5.47;;;30.80;1.00;;;;;;5041925;28;20462;-90
2023/06/17 12:47:32;;;;;;;12.67;5.27;;;31.00;1.00;;;;;;5035877;28;20459;-82
2023/06/17 12:49:58;;;;;;;14.70;5.60;;;31.30;1.00;;;;;;5031261;28;20458;-82
2023/06/17 12:52:25;;;;;;;7.93;4.87;;;31.60;1.00;;;;;;5035941;28;20208;-84
2023/06/17 12:54:58;;;;;;;6.40;4.43;;;31.30;1.00;;;;;;5042004;28;20180;-83
2023/06/17 12:57:36;;;;;;;28.83;5.53;;;30.60;1.00;;;;;;5051567;28;20423;-82
2023/06/17 13:00:06;;;;;;;5.87;4.80;;;30.00;1.00;;;;;;5038891;28;20466;-82
2023/06/17 13:02:42;;;;;;;8.43;4.70;;;30.00;1.00;;;;;;5034681;28;20458;-87
2023/06/17 13:05:12;;;;;;;9.30;4.70;;;30.50;1.00;;;;;;5050374;28;20833;-82
2023/06/17 13:07:48;;;;;;;7.43;4.40;;;30.80;1.00;;;;;;5029807;28;20825;-83
2023/06/17 13:10:15;;;;;;;16.17;4.67;;;30.90;1.00;;;;;;5035183;28;21251;-83
2023/06/17 13:12:41;;;;;;;10.63;4.60;;;31.00;1.00;;;;;;5024270;28;20444;-83
2023/06/17 13:15:12;;;;;;;4.63;4.23;;;30.90;1.00;;;;;;5043069;28;20435;-82
2023/06/17 13:18:06;;;;;;;5.57;4.90;;;30.80;1.00;;;;;;5032598;28;20191;-82
2023/06/17 13:20:36;;;;;;;17.67;4.93;;;30.70;1.00;;;;;;5035113;28;20493;-90
2023/06/17 13:23:06;;;;;;;15.60;4.53;;;30.60;1.00;;;;;;5034673;28;20481;-88
2023/06/17 13:25:36;;;;;;;5.40;4.90;;;30.60;1.00;;;;;;5034389;28;20805;-87
2023/06/17 13:28:06;;;;;;;5.63;4.60;;;30.70;1.00;;;;;;5029572;28;20420;-88
2023/06/17 13:30:31;;;;;;;7.03;4.30;;;30.80;1.00;;;;;;5042100;28;20428;-88
2023/06/17 13:33:36;;;;;;;10.30;4.77;;;31.10;1.00;;;;;;5037896;28;20987;-88
2023/06/17 13:36:25;;;;;;;6.50;4.67;;;31.20;1.00;;;;;;5033117;28;20204;-88
2023/06/17 13:38:51;;;;;;;5.20;4.67;;;31.60;1.00;;;;;;5034809;28;20423;-88
2023/06/17 13:41:25;;;;;;;4.73;4.33;;;32.00;1.00;;;;;;5034524;28;20426;-88
2023/06/17 13:44:18;;;;;;;5.27;4.47;;;32.30;1.00;;;;;;5050317;28;20473;-87
2023/06/17 13:50:06;;;;;;;4.27;3.87;;;32.40;1.00;;;;;;5032297;28;20402;-90
2023/06/17 14:03:12;;;;;;;5.03;4.00;;;32.70;1.00;;;;;;5035389;28;20473;-90
2023/06/17 14:09:04;;;;;;;4.47;4.10;;;32.80;1.00;;;;;;5031871;28;20493;-88
2023/06/17 14:11:53;;;;;;;5.63;4.00;;;32.80;1.00;;;;;;5022933;28;20439;-88
2023/06/17 14:14:47;;;;;;;4.73;4.03;;;32.50;1.00;;;;;;5031631;28;20428;-88
2023/06/17 14:17:53;;;;;;;11.30;4.10;;;32.40;1.00;;;;;;5025574;28;20509;-89
2023/06/17 14:20:24;;;;;;;10.60;4.90;;;32.50;1.00;;;;;;5014661;28;20519;-86
2023/06/17 14:22:56;;;;;;;7.23;4.53;;;32.60;1.00;;;;;;5030025;28;20464;-86
2023/06/17 14:25:30;;;;;;;4.03;3.63;;;32.60;1.00;;;;;;5029124;28;20454;-87
2023/06/17 14:31:53;;;;;;;6.63;3.97;;;32.70;1.00;;;;;;5025403;28;20774;-89
2023/06/17 14:34:24;;;;;;;9.10;4.30;;;32.40;1.00;;;;;;5033992;28;20926;-89
2023/06/17 14:36:54;;;;;;;5.33;4.80;;;32.40;1.00;;;;;;5030925;28;20777;-88
2023/06/17 14:39:53;;;;;;;3.67;3.37;;;32.40;1.00;;;;;;5042300;28;20416;-89
2023/06/17 14:45:55;;;;;;;6.30;4.70;;;32.60;1.00;;;;;;5024676;28;20409;-89
2023/06/17 14:48:53;;;;;;;5.80;3.40;;;32.80;1.00;;;;;;5034393;28;20420;-87
2023/06/17 14:51:24;;;;;;;4.93;3.70;;;33.00;1.00;;;;;;5049882;28;20506;-87
2023/06/17 14:54:23;;;;;;;4.83;3.07;;;33.10;1.00;;;;;;5031427;28;20416;-88
2023/06/17 14:57:24;;;;;;;6.60;3.30;;;32.70;1.00;;;;;;5051959;28;20536;-88
2023/06/17 15:00:23;;;;;;;3.70;3.30;;;32.70;1.00;;;;;;5035737;28;20435;-89
2023/06/17 15:03:23;;;;;;;3.50;3.20;;;32.50;1.00;;;;;;5037655;28;20459;-88
2023/06/17 15:05:54;;;;;;;5.00;3.23;;;32.30;1.00;;;;;;5033009;28;20431;-88
2023/06/17 15:08:24;;;;;;;6.93;3.60;;;32.90;1.00;;;;;;5031511;28;20462;-88
2023/06/17 15:11:23;;;;;;;3.40;3.13;;;34.00;1.00;;;;;;5049625;28;20439;-88
2023/06/17 15:13:49;;;;;;;4.77;3.53;;;35.40;1.00;;;;;;5028979;28;20528;-87
2023/06/17 15:16:24;;;;;;;7.87;3.30;;;36.30;1.00;;;;;;5019723;28;20474;-86
2023/06/17 15:18:54;;;;;;;3.63;3.33;;;37.20;1.00;;;;;;5031992;28;20930;-88
2023/06/17 15:21:24;;;;;;;3.47;2.87;;;38.80;1.00;;;;;;5033819;28;20423;-86